Time;durP1;ratioP1;P1;durP2;ratioP2;P2;SDS_P1;SDS_P2;PMS_P1;PMS_P2;Temp;Humidity;BMP_temperature;BMP_pressure;BME280_temperature;BME280_humidity;BME280_pressure;Samples;Min_cycle;Max_cycle;Signal;HPM_P1;HPM_P2
2021/08/27 00:00:55;;;;;;;4.47;1.00;;;19.80;68.10;;;;;;5099516;28;20080;-68
2021/08/27 00:03:21;;;;;;;4.07;0.82;;;19.80;68.10;;;;;;5081428;28;20044;-68
2021/08/27 00:05:46;;;;;;;3.25;0.85;;;19.70;68.00;;;;;;5079189;28;20297;-68
2021/08/27 00:08:12;;;;;;;7.05;1.08;;;19.80;68.00;;;;;;5078850;28;20037;-68
2021/08/27 00:10:38;;;;;;;4.28;1.02;;;19.70;67.80;;;;;;5078870;28;20040;-68
2021/08/27 00:13:04;;;;;;;4.95;0.90;;;19.80;67.80;;;;;;5079375;28;20392;-68
2021/08/27 00:15:29;;;;;;;5.00;1.00;;;19.80;67.80;;;;;;5078898;28;20044;-68
2021/08/27 00:17:55;;;;;;;4.30;0.73;;;19.80;68.00;;;;;;5095185;28;20055;-68
2021/08/27 00:20:21;;;;;;;3.35;1.15;;;19.70;67.90;;;;;;5099171;28;20040;-68
2021/08/27 00:22:46;;;;;;;4.13;0.63;;;19.80;68.00;;;;;;5099213;28;20389;-68
2021/08/27 00:25:12;;;;;;;4.13;1.05;;;19.70;68.00;;;;;;5081600;28;20122;-68
2021/08/27 00:27:38;;;;;;;3.25;0.85;;;19.70;68.00;;;;;;5099013;28;20100;-68
2021/08/27 00:30:04;;;;;;;3.65;0.70;;;19.70;68.10;;;;;;5098715;28;20063;-68
2021/08/27 00:32:30;;;;;;;2.13;0.60;;;19.70;68.10;;;;;;5096911;28;20134;-69
2021/08/27 00:34:56;;;;;;;4.35;1.05;;;19.70;68.10;;;;;;5098658;28;20350;-68
2021/08/27 00:37:22;;;;;;;3.67;1.00;;;19.70;68.10;;;;;;5098695;28;20044;-68
2021/08/27 00:39:47;;;;;;;5.47;0.90;;;19.70;68.90;;;;;;5099097;28;20166;-68
2021/08/27 00:42:13;;;;;;;6.15;1.13;;;19.70;68.20;;;;;;5098523;28;20052;-68
2021/08/27 00:44:39;;;;;;;3.38;0.93;;;19.70;68.30;;;;;;5099242;28;20036;-68
2021/08/27 00:47:05;;;;;;;4.32;0.90;;;19.70;68.30;;;;;;5098452;28;20046;-70
2021/08/27 00:49:32;;;;;;;3.05;0.70;;;19.70;68.30;;;;;;5098401;28;20435;-68
2021/08/27 00:51:58;;;;;;;1.80;0.68;;;19.60;68.30;;;;;;5098188;28;20044;-67
2021/08/27 00:54:24;;;;;;;4.45;0.90;;;19.70;68.50;;;;;;5098152;28;20048;-68
2021/08/27 00:56:50;;;;;;;3.15;0.82;;;19.70;68.60;;;;;;5098302;28;20498;-68
2021/08/27 00:59:17;;;;;;;5.90;1.05;;;19.70;68.60;;;;;;5098339;28;20040;-68
2021/08/27 01:01:43;;;;;;;4.38;0.90;;;19.70;68.60;;;;;;5095011;28;20041;-68
2021/08/27 01:04:10;;;;;;;3.00;1.17;;;19.60;68.50;;;;;;5077638;28;20036;-68
2021/08/27 01:06:54;;;;;;;1.92;0.70;;;19.60;68.40;;;;;;5077652;28;20087;-68
2021/08/27 01:09:22;;;;;;;;;;;19.60;68.50;;;;;;5077984;28;20452;-68
2021/08/27 01:12:05;;;;;;;3.92;0.90;;;19.60;68.50;;;;;;5077816;28;19973;-68
2021/08/27 01:14:49;;;;;;;4.18;0.73;;;19.60;68.70;;;;;;5078406;28;20036;-67
2021/08/27 01:17:20;;;;;;;4.13;1.00;;;19.60;68.90;;;;;;5077778;28;20056;-68
2021/08/27 01:20:00;;;;;;;6.38;1.20;;;19.50;68.80;;;;;;5078648;28;20051;-68
2021/08/27 01:22:51;;;;;;;3.63;0.90;;;19.60;69.00;;;;;;5077708;28;20066;-68
2021/08/27 01:25:21;;;;;;;3.17;0.98;;;19.50;69.00;;;;;;5077282;28;20045;-68
2021/08/27 01:27:51;;;;;;;3.42;0.80;;;19.50;69.10;;;;;;5060070;28;20470;-67
2021/08/27 01:30:57;;;;;;;3.28;0.82;;;19.50;69.00;;;;;;5077373;28;20051;-68
2021/08/27 01:33:25;;;;;;;4.07;0.80;;;19.50;69.00;;;;;;5088491;28;20431;-68
2021/08/27 01:36:09;;;;;;;2.83;0.98;;;19.50;69.10;;;;;;5097389;28;20050;-68
2021/08/27 01:38:38;;;;;;;3.90;1.10;;;19.50;69.10;;;;;;5097419;28;20050;-68
2021/08/27 01:41:07;;;;;;;4.15;0.88;;;19.50;69.20;;;;;;5097764;28;20047;-68
2021/08/27 01:43:34;;;;;;;3.67;0.77;;;19.50;69.80;;;;;;5097691;28;20036;-68
2021/08/27 01:46:02;;;;;;;3.03;0.80;;;19.50;69.30;;;;;;5080411;28;20044;-68
2021/08/27 01:48:31;;;;;;;4.38;0.63;;;19.60;69.40;;;;;;5097654;28;20334;-68
2021/08/27 01:50:57;;;;;;;3.10;0.77;;;19.50;69.40;;;;;;5097389;28;20040;-68
2021/08/27 01:53:28;;;;;;;3.38;0.77;;;19.50;69.40;;;;;;5097477;28;20335;-67
2021/08/27 01:56:01;;;;;;;5.25;0.98;;;19.50;69.30;;;;;;5097421;28;20385;-68
2021/08/27 01:58:29;;;;;;;3.67;0.98;;;19.50;69.40;;;;;;5097048;28;20044;-68
2021/08/27 02:00:57;;;;;;;2.45;0.60;;;19.50;69.40;;;;;;5096798;28;20055;-67
2021/08/27 02:03:27;;;;;;;2.72;0.70;;;19.50;69.40;;;;;;5090062;28;20047;-68
2021/08/27 02:05:53;;;;;;;3.42;0.93;;;19.50;69.40;;;;;;5097723;28;20120;-67
2021/08/27 02:08:21;;;;;;;3.00;0.55;;;19.50;69.40;;;;;;5097120;28;20048;-68
2021/08/27 02:10:49;;;;;;;3.22;0.60;;;19.50;69.40;;;;;;5096787;28;20051;-68
2021/08/27 02:13:16;;;;;;;3.35;0.82;;;19.50;69.40;;;;;;5084973;28;20041;-67
2021/08/27 02:15:44;;;;;;;6.55;0.90;;;19.50;69.50;;;;;;5076244;28;20044;-68
2021/08/27 02:18:10;;;;;;;3.97;0.70;;;19.50;69.50;;;;;;5076071;28;20048;-68
2021/08/27 02:20:36;;;;;;;4.55;0.93;;;19.50;69.40;;;;;;5076745;28;20058;-68
2021/08/27 02:23:05;;;;;;;5.45;0.60;;;19.40;69.40;;;;;;5076293;28;20040;-68
2021/08/27 02:25:33;;;;;;;5.47;0.80;;;19.40;69.30;;;;;;5059224;28;20379;-68
2021/08/27 02:28:05;;;;;;;3.15;0.85;;;19.40;69.30;;;;;;5075617;28;20448;-69
2021/08/27 02:30:32;;;;;;;4.22;0.65;;;19.40;69.40;;;;;;5076219;28;20047;-68
2021/08/27 02:33:07;;;;;;;2.45;0.73;;;19.50;69.40;;;;;;5078507;28;20040;-68
2021/08/27 02:35:34;;;;;;;3.05;0.70;;;19.50;69.40;;;;;;5096426;28;20039;-68
2021/08/27 02:38:01;;;;;;;2.10;0.60;;;19.40;69.40;;;;;;5096430;28;20044;-68
2021/08/27 02:40:27;;;;;;;3.38;0.90;;;19.40;69.30;;;;;;5096715;28;20040;-68
2021/08/27 02:42:53;;;;;;;2.55;0.55;;;19.40;69.40;;;;;;5096033;28;20036;-67
2021/08/27 02:45:18;;;;;;;1.77;0.57;;;19.40;69.50;;;;;;5096226;28;20035;-68
2021/08/27 02:47:44;;;;;;;3.50;0.70;;;19.40;69.40;;;;;;5096263;28;20048;-68
2021/08/27 02:50:12;;;;;;;3.28;0.90;;;19.40;69.40;;;;;;5096434;28;20079;-67
2021/08/27 02:53:21;;;;;;;5.55;1.00;;;19.40;69.50;;;;;;5095669;28;20048;-68
2021/08/27 02:55:55;;;;;;;3.80;0.82;;;19.40;69.20;;;;;;5095772;28;20517;-67
2021/08/27 02:58:23;;;;;;;3.63;0.70;;;19.40;69.50;;;;;;5095782;28;20044;-67
2021/08/27 03:00:55;;;;;;;3.47;0.60;;;19.40;69.40;;;;;;5095545;28;20052;-68
2021/08/27 03:03:30;;;;;;;2.50;0.55;;;19.40;69.50;;;;;;5076397;28;20193;-68
2021/08/27 03:06:00;;;;;;;4.32;0.85;;;19.40;69.40;;;;;;5075401;28;20139;-68
2021/08/27 03:08:28;;;;;;;3.10;0.35;;;19.40;69.40;;;;;;5075692;28;20044;-68
2021/08/27 03:11:02;;;;;;;5.60;0.90;;;19.40;69.30;;;;;;5075703;28;20045;-68
2021/08/27 03:13:41;;;;;;;1.83;0.43;;;19.40;69.30;;;;;;5075624;28;20044;-68
2021/08/27 03:16:10;;;;;;;3.00;0.70;;;19.40;69.20;;;;;;5075476;28;20063;-68
2021/08/27 03:19:09;;;;;;;2.50;0.60;;;19.40;69.40;;;;;;5075345;28;20443;-68
2021/08/27 03:21:55;;;;;;;1.92;0.95;;;19.40;69.20;;;;;;5075065;28;20052;-68
2021/08/27 03:24:28;;;;;;;1.52;0.60;;;19.40;69.30;;;;;;5075183;28;20109;-68
2021/08/27 03:27:03;;;;;;;3.25;0.50;;;19.30;69.30;;;;;;5075439;28;20052;-68
2021/08/27 03:29:37;;;;;;;4.60;0.63;;;19.30;69.20;;;;;;5075236;28;20458;-67
2021/08/27 03:32:04;;;;;;;2.10;0.52;;;19.30;69.80;;;;;;5064499;28;20047;-68
2021/08/27 03:34:30;;;;;;;2.60;0.75;;;19.30;69.20;;;;;;5095481;28;20059;-68
2021/08/27 03:36:58;;;;;;;3.67;0.70;;;19.30;69.30;;;;;;5095264;28;20089;-68
2021/08/27 03:39:24;;;;;;;3.30;0.90;;;19.30;69.20;;;;;;5095247;28;20043;-68
2021/08/27 03:41:52;;;;;;;2.28;0.75;;;19.30;69.20;;;;;;5095175;28;20466;-68
2021/08/27 03:44:19;;;;;;;4.50;0.77;;;19.30;69.20;;;;;;5096158;28;20066;-67
2021/08/27 03:46:46;;;;;;;1.95;0.55;;;19.30;69.40;;;;;;5095322;28;20447;-68
2021/08/27 03:49:12;;;;;;;3.53;0.95;;;19.40;69.50;;;;;;5095127;28;20090;-68
2021/08/27 03:51:39;;;;;;;2.75;1.00;;;19.30;69.60;;;;;;5095666;28;20036;-67
2021/08/27 03:54:05;;;;;;;7.85;1.02;;;19.30;69.70;;;;;;5095520;28;20047;-68
2021/08/27 03:56:33;;;;;;;2.88;0.80;;;19.30;69.90;;;;;;5095437;28;20051;-68
2021/08/27 03:59:00;;;;;;;4.15;0.70;;;19.40;70.10;;;;;;5095002;28;20079;-68
2021/08/27 04:01:26;;;;;;;2.90;0.90;;;19.30;70.10;;;;;;5085560;28;20048;-68
2021/08/27 04:03:51;;;;;;;4.15;0.70;;;19.30;70.10;;;;;;5079374;28;20124;-67
2021/08/27 04:06:17;;;;;;;6.88;1.08;;;19.30;70.20;;;;;;5075157;28;20072;-70
2021/08/27 04:08:43;;;;;;;6.88;1.05;;;19.30;70.20;;;;;;5087413;28;20040;-69
2021/08/27 04:11:12;;;;;;;5.22;0.60;;;19.30;70.20;;;;;;5074641;28;20503;-69
2021/08/27 04:13:39;;;;;;;4.72;1.17;;;19.30;70.20;;;;;;5083944;28;20054;-69
2021/08/27 04:16:05;;;;;;;3.78;0.73;;;19.30;70.10;;;;;;5077876;28;20167;-66
2021/08/27 04:18:31;;;;;;;2.97;1.25;;;19.30;70.00;;;;;;5078081;28;20169;-68
2021/08/27 04:20:57;;;;;;;4.45;0.80;;;19.30;70.00;;;;;;5094963;28;20040;-68
2021/08/27 04:23:24;;;;;;;4.40;1.08;;;19.30;70.00;;;;;;5094952;28;20439;-68
2021/08/27 04:25:50;;;;;;;4.38;1.20;;;19.30;70.00;;;;;;5094912;28;20122;-68
2021/08/27 04:28:17;;;;;;;3.08;0.77;;;19.30;70.00;;;;;;5095080;28;20044;-68
2021/08/27 04:30:43;;;;;;;3.40;1.08;;;19.30;69.90;;;;;;5090878;28;20062;-67
2021/08/27 04:33:08;;;;;;;2.53;0.50;;;19.30;69.90;;;;;;5075244;28;20036;-67
2021/08/27 04:35:35;;;;;;;3.67;1.00;;;19.30;70.00;;;;;;5074375;28;20129;-66
2021/08/27 04:38:00;;;;;;;4.80;1.00;;;19.30;70.00;;;;;;5074726;28;20044;-68
2021/08/27 04:40:27;;;;;;;3.72;0.80;;;19.30;70.20;;;;;;5059578;28;20062;-66
2021/08/27 04:42:53;;;;;;;4.68;1.20;;;19.30;70.10;;;;;;5078498;28;20036;-68
2021/08/27 04:45:19;;;;;;;6.30;1.00;;;19.20;70.20;;;;;;5078015;28;20082;-68
2021/08/27 04:47:45;;;;;;;6.70;1.05;;;19.20;70.30;;;;;;5078322;28;20044;-67
2021/08/27 04:50:11;;;;;;;5.57;1.15;;;19.20;70.50;;;;;;5078082;28;20435;-68
2021/08/27 04:52:38;;;;;;;5.03;1.00;;;19.30;70.80;;;;;;5078096;28;20043;-70
2021/08/27 04:55:04;;;;;;;3.40;1.08;;;19.30;70.80;;;;;;5078829;28;20048;-67
2021/08/27 04:57:30;;;;;;;4.88;1.00;;;19.30;70.60;;;;;;5077956;28;20051;-68
2021/08/27 04:59:56;;;;;;;4.35;1.17;;;19.20;70.50;;;;;;5077324;28;20041;-67
2021/08/27 05:02:22;;;;;;;4.70;0.88;;;19.20;70.50;;;;;;5077360;28;20116;-67
2021/08/27 05:04:48;;;;;;;4.20;1.13;;;19.20;70.50;;;;;;5078023;28;20088;-67
2021/08/27 05:07:14;;;;;;;3.65;1.10;;;19.20;70.40;;;;;;5078078;28;20153;-68
2021/08/27 05:09:39;;;;;;;3.60;1.15;;;19.20;70.40;;;;;;5077802;28;20037;-67
2021/08/27 05:12:06;;;;;;;4.10;1.00;;;19.20;70.40;;;;;;5078343;28;20101;-67
2021/08/27 05:14:31;;;;;;;7.18;1.23;;;19.20;70.50;;;;;;5077788;28;20048;-67
2021/08/27 05:16:57;;;;;;;6.63;1.20;;;19.20;70.50;;;;;;5077425;28;20047;-67
2021/08/27 05:19:23;;;;;;;5.00;1.05;;;19.20;70.60;;;;;;5077952;28;20048;-67
2021/08/27 05:21:48;;;;;;;5.97;1.15;;;19.20;70.60;;;;;;5077836;28;20119;-67
2021/08/27 05:24:14;;;;;;;4.75;1.05;;;19.20;70.80;;;;;;5077115;28;20044;-67
2021/08/27 05:26:40;;;;;;;4.55;0.95;;;19.20;70.80;;;;;;5088016;28;20050;-68
2021/08/27 05:29:06;;;;;;;4.57;1.00;;;19.20;70.80;;;;;;5097534;28;20040;-68
2021/08/27 05:31:33;;;;;;;8.52;1.90;;;19.20;70.80;;;;;;5097874;28;20127;-67
2021/08/27 05:34:06;;;;;;;5.38;1.52;;;19.20;70.80;;;;;;5098124;28;20040;-67
2021/08/27 05:36:32;;;;;;;7.60;1.27;;;19.20;70.90;;;;;;5097498;28;20051;-68
2021/08/27 05:38:57;;;;;;;7.43;1.95;;;19.20;70.70;;;;;;5097065;28;20043;-68
2021/08/27 05:41:23;;;;;;;9.35;2.08;;;19.20;70.60;;;;;;5097741;28;20048;-68
2021/08/27 05:43:49;;;;;;;7.50;1.35;;;19.10;70.60;;;;;;5097694;28;20040;-68
2021/08/27 05:46:14;;;;;;;7.53;1.98;;;19.20;70.60;;;;;;5098026;28;20051;-67
2021/08/27 05:48:40;;;;;;;9.95;1.90;;;19.10;70.60;;;;;;5097638;28;20381;-68
2021/08/27 05:51:06;;;;;;;8.85;1.42;;;19.10;70.70;;;;;;5097274;28;20051;-68
2021/08/27 05:53:32;;;;;;;6.50;1.60;;;19.10;70.90;;;;;;5097570;28;20040;-68
2021/08/27 05:55:58;;;;;;;8.05;1.42;;;19.10;71.10;;;;;;5092392;28;20480;-69
2021/08/27 05:58:23;;;;;;;13.70;1.67;;;19.00;71.20;;;;;;5076684;28;20032;-68
2021/08/27 06:00:50;;;;;;;6.55;1.85;;;19.10;71.30;;;;;;5076956;28;20439;-68
2021/08/27 06:03:16;;;;;;;8.73;1.80;;;19.10;71.30;;;;;;5093518;28;20063;-71
2021/08/27 06:05:45;;;;;;;14.23;2.72;;;19.00;71.40;;;;;;5097094;28;20047;-69
2021/08/27 06:08:11;;;;;;;11.40;1.88;;;19.10;71.60;;;;;;5097115;28;20083;-67
2021/08/27 06:10:36;;;;;;;17.02;2.95;;;19.10;71.50;;;;;;5097105;28;20051;-68
2021/08/27 06:13:02;;;;;;;13.05;2.10;;;19.10;71.70;;;;;;5096553;28;20052;-67
2021/08/27 06:15:28;;;;;;;7.45;1.60;;;19.10;71.80;;;;;;5097101;28;20085;-67
2021/08/27 06:17:54;;;;;;;7.38;1.55;;;19.10;71.60;;;;;;5079709;28;20044;-67
2021/08/27 06:20:19;;;;;;;12.80;2.03;;;19.10;71.60;;;;;;5097028;28;20091;-67
2021/08/27 06:22:45;;;;;;;11.02;2.28;;;19.10;71.60;;;;;;5096839;28;20043;-67
2021/08/27 06:25:11;;;;;;;7.78;1.55;;;19.10;71.70;;;;;;5095139;28;20093;-67
2021/08/27 06:27:37;;;;;;;8.05;1.83;;;19.10;71.70;;;;;;5076326;28;20130;-67
2021/08/27 06:30:04;;;;;;;8.40;1.83;;;19.10;71.70;;;;;;5059253;28;20189;-67
2021/08/27 06:32:30;;;;;;;7.38;2.25;;;19.10;71.70;;;;;;5076207;28;20041;-66
2021/08/27 06:34:56;;;;;;;7.57;1.65;;;19.10;71.70;;;;;;5076380;28;20339;-67
2021/08/27 06:38:20;;;;;;;10.80;2.20;;;19.00;71.70;;;;;;5075953;28;20051;-67
2021/08/27 06:40:09;;;;;;;8.38;1.95;;;19.00;71.80;;;;;;5095750;28;20050;-67
2021/08/27 06:42:35;;;;;;;10.23;2.20;;;19.10;72.00;;;;;;5095995;28;20109;-67
2021/08/27 06:45:01;;;;;;;9.80;2.10;;;19.10;72.10;;;;;;5096543;28;20044;-67
2021/08/27 06:47:26;;;;;;;10.90;2.08;;;19.00;72.10;;;;;;5096549;28;20120;-67
2021/08/27 06:49:52;;;;;;;9.32;1.90;;;19.10;72.20;;;;;;5096142;28;20035;-69
2021/08/27 06:52:18;;;;;;;7.88;2.42;;;19.10;72.40;;;;;;5096279;28;20048;-67
2021/08/27 06:54:44;;;;;;;13.52;2.42;;;19.00;72.60;;;;;;5095950;28;20055;-67
2021/08/27 06:57:09;;;;;;;8.07;1.83;;;19.10;72.80;;;;;;5078806;28;20105;-66
2021/08/27 06:59:35;;;;;;;17.58;2.50;;;19.10;72.80;;;;;;5075837;28;20044;-66
2021/08/27 07:02:01;;;;;;;11.77;2.45;;;19.10;72.90;;;;;;5075136;28;20356;-66
2021/08/27 07:04:26;;;;;;;15.48;2.55;;;19.10;72.90;;;;;;5075804;28;20091;-66
2021/08/27 07:06:52;;;;;;;9.63;2.30;;;19.20;72.80;;;;;;5075714;28;20044;-66
2021/08/27 07:09:19;;;;;;;11.80;2.00;;;19.20;72.80;;;;;;5075614;28;20114;-67
2021/08/27 07:11:45;;;;;;;11.60;1.92;;;19.20;72.80;;;;;;5075977;28;20424;-67
2021/08/27 07:14:11;;;;;;;10.75;2.00;;;19.20;72.80;;;;;;5075727;28;20072;-65
2021/08/27 07:16:36;;;;;;;9.73;2.55;;;19.30;72.70;;;;;;5076423;28;20097;-66
2021/08/27 07:19:02;;;;;;;7.43;2.10;;;19.30;72.80;;;;;;5089772;28;20040;-68
2021/08/27 07:21:28;;;;;;;16.63;2.10;;;19.30;72.80;;;;;;5095809;28;20043;-69
2021/08/27 07:23:53;;;;;;;10.88;2.03;;;19.40;72.60;;;;;;5096270;28;20044;-69
2021/08/27 07:26:19;;;;;;;12.30;2.20;;;19.40;72.40;;;;;;5095345;28;20040;-74
2021/08/27 07:28:45;;;;;;;12.48;2.17;;;19.40;73.00;;;;;;5095738;28;20051;-72
2021/08/27 07:31:10;;;;;;;24.35;3.60;;;19.40;72.60;;;;;;5095586;28;20371;-70
2021/08/27 07:33:36;;;;;;;18.48;2.63;;;19.40;72.50;;;;;;5095684;28;20100;-69
2021/08/27 07:36:02;;;;;;;13.57;2.30;;;19.40;72.50;;;;;;5096107;28;20051;-71
2021/08/27 07:38:28;;;;;;;12.57;1.85;;;19.40;72.50;;;;;;5094479;28;20036;-68
2021/08/27 07:40:53;;;;;;;9.30;2.15;;;19.40;72.50;;;;;;5074846;28;20044;-69
2021/08/27 07:43:19;;;;;;;8.68;1.80;;;19.40;72.60;;;;;;5075154;28;20044;-69
2021/08/27 07:45:48;;;;;;;11.93;2.28;;;19.40;72.50;;;;;;5076567;28;20068;-68
2021/08/27 07:48:16;;;;;;;12.02;2.08;;;19.40;72.40;;;;;;5095028;28;20040;-68
2021/08/27 07:50:43;;;;;;;8.82;1.67;;;19.40;72.30;;;;;;5095049;28;20044;-69
2021/08/27 07:53:08;;;;;;;10.23;1.92;;;19.30;72.30;;;;;;5095331;28;20043;-69
2021/08/27 07:55:34;;;;;;;8.15;1.98;;;19.40;72.30;;;;;;5095142;28;20084;-69
2021/08/27 07:58:00;;;;;;;8.43;1.70;;;19.40;72.30;;;;;;5095012;28;20066;-68
2021/08/27 08:00:25;;;;;;;6.70;1.48;;;19.40;72.30;;;;;;5094795;28;20051;-68
2021/08/27 08:02:51;;;;;;;7.72;1.75;;;19.40;72.30;;;;;;5080546;28;20107;-68
2021/08/27 08:05:17;;;;;;;9.85;1.73;;;19.40;72.40;;;;;;5074578;28;20044;-69
2021/08/27 08:07:42;;;;;;;5.40;1.38;;;19.40;72.30;;;;;;5057338;28;20116;-68
2021/08/27 08:10:09;;;;;;;4.85;1.13;;;19.40;72.30;;;;;;5074768;28;20037;-68
2021/08/27 08:12:35;;;;;;;9.77;1.95;;;19.50;72.40;;;;;;5075037;28;20083;-67
2021/08/27 08:15:00;;;;;;;8.35;1.77;;;19.50;72.50;;;;;;5076590;28;20108;-67
2021/08/27 08:17:26;;;;;;;7.22;1.60;;;19.50;72.50;;;;;;5078501;28;20043;-67
2021/08/27 08:19:52;;;;;;;7.40;1.48;;;19.50;72.50;;;;;;5078566;28;20040;-69
2021/08/27 08:22:21;;;;;;;7.32;1.50;;;19.50;72.50;;;;;;5078286;28;20044;-68
2021/08/27 08:24:46;;;;;;;10.25;1.85;;;19.50;72.50;;;;;;5078440;28;20115;-67
2021/08/27 08:27:12;;;;;;;5.10;1.33;;;19.50;72.40;;;;;;5082399;28;20503;-68
2021/08/27 08:29:38;;;;;;;4.53;1.15;;;19.50;72.40;;;;;;5098796;28;20040;-68
2021/08/27 08:32:05;;;;;;;7.40;1.58;;;19.50;72.30;;;;;;5097898;28;20443;-68
2021/08/27 08:34:31;;;;;;;10.45;1.60;;;19.50;72.10;;;;;;5098714;28;20040;-70
2021/08/27 08:36:57;;;;;;;8.13;1.52;;;19.50;72.20;;;;;;5096979;28;20051;-69
2021/08/27 08:39:22;;;;;;;8.05;1.50;;;19.50;72.20;;;;;;5094598;28;20043;-68
2021/08/27 08:41:48;;;;;;;5.20;0.95;;;19.50;72.30;;;;;;5098093;28;20332;-68
2021/08/27 08:44:16;;;;;;;5.18;1.42;;;19.50;72.30;;;;;;5098374;28;20058;-68
2021/08/27 08:46:44;;;;;;;5.80;0.90;;;19.60;72.60;;;;;;5080221;28;20321;-68
2021/08/27 08:49:13;;;;;;;6.53;1.17;;;19.60;72.50;;;;;;5098450;28;20047;-68
2021/08/27 08:51:44;;;;;;;6.43;1.33;;;19.60;72.30;;;;;;5098126;28;20060;-68
2021/08/27 08:54:13;;;;;;;9.07;1.70;;;19.60;72.50;;;;;;5098374;28;20040;-67
2021/08/27 08:56:41;;;;;;;9.15;1.52;;;19.60;72.60;;;;;;5098121;28;20044;-68
2021/08/27 08:59:07;;;;;;;6.95;1.42;;;19.60;72.60;;;;;;5098437;28;20104;-67
2021/08/27 09:01:33;;;;;;;7.63;1.35;;;19.60;72.50;;;;;;5097179;28;20109;-68
2021/08/27 09:03:59;;;;;;;8.75;1.67;;;19.60;72.40;;;;;;5097956;28;20044;-68
2021/08/27 09:06:25;;;;;;;7.32;1.48;;;19.60;72.40;;;;;;5098522;28;20055;-68
2021/08/27 09:08:52;;;;;;;6.15;1.50;;;19.60;72.40;;;;;;5098093;28;20075;-68
2021/08/27 09:11:25;;;;;;;6.55;1.38;;;19.60;72.30;;;;;;5098806;28;20124;-68
2021/08/27 09:13:58;;;;;;;5.03;1.50;;;19.70;72.30;;;;;;5098244;28;20320;-68
2021/08/27 09:16:31;;;;;;;5.03;1.23;;;19.70;72.30;;;;;;5097993;28;20115;-67
2021/08/27 09:18:57;;;;;;;7.80;1.75;;;19.70;72.20;;;;;;5097901;28;20075;-68
2021/08/27 09:21:36;;;;;;;7.35;1.27;;;19.70;72.20;;;;;;5098262;28;20044;-68
2021/08/27 09:24:14;;;;;;;4.35;1.10;;;19.70;72.20;;;;;;5097895;28;20093;-68
2021/08/27 09:26:41;;;;;;;8.55;1.70;;;19.70;72.10;;;;;;5097426;28;20446;-68
2021/08/27 09:29:07;;;;;;;4.97;1.20;;;19.70;72.20;;;;;;5097800;28;20040;-68
2021/08/27 09:31:40;;;;;;;8.90;1.50;;;19.70;72.10;;;;;;5092484;28;20392;-68
2021/08/27 09:34:06;;;;;;;4.63;1.60;;;19.70;71.90;;;;;;5077305;28;20410;-68
2021/08/27 09:36:33;;;;;;;6.68;1.73;;;19.70;71.90;;;;;;5076928;28;20052;-67
2021/08/27 09:39:12;;;;;;;5.18;1.45;;;19.70;71.90;;;;;;5077273;28;20083;-68
2021/08/27 09:41:55;;;;;;;5.32;1.70;;;19.70;71.80;;;;;;5060343;28;20337;-68
2021/08/27 09:44:22;;;;;;;8.18;1.40;;;19.70;71.90;;;;;;5077554;28;20048;-68
2021/08/27 09:46:48;;;;;;;5.45;1.38;;;19.70;71.90;;;;;;5077420;28;20045;-68
2021/08/27 09:49:29;;;;;;;11.48;1.85;;;19.70;71.90;;;;;;5077131;28;20127;-68
2021/08/27 09:51:57;;;;;;;6.63;1.45;;;19.70;71.80;;;;;;5076996;28;20040;-67
2021/08/27 09:54:27;;;;;;;6.10;1.15;;;19.70;71.90;;;;;;5076880;28;20055;-68
2021/08/27 09:56:55;;;;;;;6.35;1.50;;;19.70;71.90;;;;;;5076927;28;20044;-68
2021/08/27 09:59:36;;;;;;;6.05;1.50;;;19.70;71.90;;;;;;5076891;28;20040;-67
2021/08/27 10:02:04;;;;;;;5.03;1.50;;;19.70;71.90;;;;;;5083943;28;20347;-68
2021/08/27 10:04:31;;;;;;;3.97;1.40;;;19.70;72.00;;;;;;5097032;28;20048;-68
2021/08/27 10:06:57;;;;;;;4.70;1.23;;;19.70;72.00;;;;;;5096723;28;20047;-68
2021/08/27 10:09:23;;;;;;;4.70;1.42;;;19.70;72.00;;;;;;5097009;28;20075;-68
2021/08/27 10:11:59;;;;;;;3.33;1.23;;;19.70;72.00;;;;;;5096805;28;20480;-68
2021/08/27 10:14:25;;;;;;;3.95;1.58;;;19.70;71.90;;;;;;5097088;28;20447;-68
2021/08/27 10:16:50;;;;;;;4.70;1.65;;;19.70;72.00;;;;;;5096394;28;20040;-68
2021/08/27 10:19:16;;;;;;;6.05;1.58;;;19.70;72.10;;;;;;5096558;28;20050;-68
2021/08/27 10:21:42;;;;;;;4.38;1.20;;;19.70;72.10;;;;;;5096568;28;20122;-68
2021/08/27 10:24:08;;;;;;;4.82;1.38;;;19.70;72.10;;;;;;5096663;28;20044;-68
2021/08/27 10:26:39;;;;;;;6.28;1.50;;;19.70;72.10;;;;;;5096818;28;20036;-68
2021/08/27 10:29:05;;;;;;;3.95;1.58;;;19.70;72.10;;;;;;5095488;28;20040;-68
2021/08/27 10:31:48;;;;;;;4.90;1.48;;;19.70;72.20;;;;;;5076192;28;20041;-69
2021/08/27 10:34:15;;;;;;;5.68;1.75;;;19.70;72.20;;;;;;5076126;28;20049;-68
2021/08/27 10:36:51;;;;;;;5.72;1.38;;;19.70;72.30;;;;;;5057933;28;20056;-68
2021/08/27 10:39:35;;;;;;;4.93;1.65;;;19.70;72.20;;;;;;5076241;28;20118;-68
2021/08/27 10:42:01;;;;;;;4.47;1.40;;;19.70;72.20;;;;;;5076060;28;20117;-69
2021/08/27 10:45:02;;;;;;;3.72;1.17;;;19.70;72.30;;;;;;5075895;28;20036;-72
2021/08/27 10:47:28;;;;;;;7.10;1.65;;;19.70;72.20;;;;;;4961203;28;20445;-71
2021/08/27 10:49:55;;;;;;;4.30;1.30;;;19.80;72.30;;;;;;5065928;28;20047;-72
2021/08/27 10:52:28;;;;;;;7.00;1.38;;;19.70;72.20;;;;;;5094674;28;20478;-69
2021/08/27 10:55:15;;;;;;;7.17;1.93;;;19.80;72.10;;;;;;5080502;28;20047;-68
2021/08/27 10:58:00;;;;;;;5.60;1.58;;;19.80;72.00;;;;;;5075857;28;20046;-70
2021/08/27 11:00:33;;;;;;;5.43;1.52;;;19.80;71.90;;;;;;5075647;28;20457;-69
2021/08/27 11:02:59;;;;;;;5.03;1.60;;;19.80;72.00;;;;;;5075257;28;20032;-69
2021/08/27 11:05:33;;;;;;;5.85;1.30;;;19.80;72.10;;;;;;5076714;28;20041;-70
2021/08/27 11:08:29;;;;;;;7.70;1.63;;;19.80;72.00;;;;;;5094214;28;20036;-68
2021/08/27 11:11:10;;;;;;;4.88;1.50;;;19.80;72.10;;;;;;5094733;28;20035;-69
2021/08/27 11:13:38;;;;;;;4.95;1.33;;;19.80;72.00;;;;;;5094501;28;20071;-69
2021/08/27 11:16:22;;;;;;;6.18;1.65;;;19.80;72.10;;;;;;5094430;28;20055;-70
2021/08/27 11:18:49;;;;;;;4.18;1.15;;;19.80;72.10;;;;;;5094806;28;20385;-70
2021/08/27 11:21:34;;;;;;;4.43;1.20;;;19.80;72.20;;;;;;5075529;28;20055;-70
2021/08/27 11:24:23;;;;;;;4.38;1.50;;;19.80;72.20;;;;;;5070717;28;20072;-70
2021/08/27 11:26:58;;;;;;;4.55;1.40;;;19.80;72.20;;;;;;5074706;28;20043;-74
2021/08/27 11:29:32;;;;;;;6.18;1.55;;;19.90;72.40;;;;;;5075335;28;20162;-75
2021/08/27 11:32:27;;;;;;;4.30;1.70;;;19.80;72.20;;;;;;5072337;28;20336;-73
2021/08/27 11:34:54;;;;;;;;;;;19.90;72.20;;;;;;5067844;28;20048;-74
2021/08/27 11:37:21;;;;;;;4.72;1.40;;;19.80;71.70;;;;;;5069878;28;19916;-72
2021/08/27 11:39:48;;;;;;;5.72;1.40;;;19.90;72.50;;;;;;5074577;28;20367;-74
2021/08/27 11:42:16;;;;;;;6.72;1.38;;;19.90;71.80;;;;;;5076486;28;20040;-76
2021/08/27 11:44:43;;;;;;;4.32;1.15;;;19.90;71.90;;;;;;5075220;28;20047;-74
2021/08/27 11:47:13;;;;;;;4.97;1.35;;;19.90;71.80;;;;;;5057591;28;20072;-74
2021/08/27 11:49:51;;;;;;;5.82;1.38;;;19.90;71.70;;;;;;5094026;28;20144;-73
2021/08/27 11:52:27;;;;;;;5.85;1.83;;;19.90;71.60;;;;;;5093966;28;20087;-74
2021/08/27 11:55:01;;;;;;;4.50;1.02;;;19.90;71.60;;;;;;5094311;28;20449;-74
2021/08/27 11:57:27;;;;;;;4.78;1.30;;;19.90;71.30;;;;;;5078997;28;20040;-72
2021/08/27 12:00:11;;;;;;;5.35;1.42;;;19.90;71.60;;;;;;5074841;28;20068;-74
2021/08/27 12:02:38;;;;;;;7.25;1.33;;;19.90;71.50;;;;;;5075361;28;20049;-69
2021/08/27 12:05:12;;;;;;;5.18;1.42;;;19.90;71.60;;;;;;5075033;28;20335;-69
2021/08/27 12:07:59;;;;;;;6.00;1.20;;;19.90;71.60;;;;;;5075635;28;20040;-69
2021/08/27 12:10:27;;;;;;;6.18;1.52;;;19.90;71.60;;;;;;5074654;28;20049;-69
2021/08/27 12:12:54;;;;;;;3.17;1.02;;;19.90;71.80;;;;;;5075006;28;20040;-69
2021/08/27 12:15:25;;;;;;;3.03;1.40;;;19.90;71.80;;;;;;5075095;28;20044;-68
2021/08/27 12:17:57;;;;;;;5.82;1.15;;;19.90;71.80;;;;;;5074678;28;20036;-69
2021/08/27 12:20:45;;;;;;;7.18;1.27;;;19.90;71.80;;;;;;5074736;28;20040;-68
2021/08/27 12:23:17;;;;;;;8.48;1.48;;;19.90;71.80;;;;;;5074045;28;20371;-69
2021/08/27 12:25:53;;;;;;;5.07;1.35;;;19.90;72.40;;;;;;5075038;28;20051;-69
2021/08/27 12:28:20;;;;;;;4.72;1.17;;;19.90;71.80;;;;;;5075288;28;20363;-69
2021/08/27 12:30:53;;;;;;;6.60;1.55;;;20.00;71.80;;;;;;5075012;28;20041;-69
2021/08/27 12:33:19;;;;;;;5.30;0.90;;;19.90;71.70;;;;;;5069614;28;20115;-68
2021/08/27 12:35:47;;;;;;;5.28;1.40;;;19.90;71.70;;;;;;5095165;28;20048;-68
2021/08/27 12:38:17;;;;;;;5.07;1.10;;;20.00;71.80;;;;;;5095085;28;20439;-69
2021/08/27 12:40:44;;;;;;;5.68;1.63;;;20.00;71.70;;;;;;5094770;28;20047;-69
2021/08/27 12:43:12;;;;;;;6.07;1.83;;;20.00;71.80;;;;;;5094810;28;20051;-69
2021/08/27 12:45:45;;;;;;;1.92;0.70;;;20.00;71.70;;;;;;5095082;28;20432;-69
2021/08/27 12:48:14;;;;;;;5.40;1.08;;;20.00;71.70;;;;;;5094886;28;20055;-69
2021/08/27 12:50:47;;;;;;;6.25;1.10;;;20.00;71.70;;;;;;5095160;28;20040;-69
2021/08/27 12:53:14;;;;;;;4.90;1.17;;;20.00;71.70;;;;;;5094491;28;20462;-70
2021/08/27 12:55:39;;;;;;;7.82;1.35;;;20.00;71.70;;;;;;5094422;28;20037;-70